NCAR-RAP Real-Time Weather Data

Output produced by METARs form (24 April 2018  22:58 UTC)
found at http://weather.rap.ucar.edu/surface/
 
RJOK 242200Z 33018KT 9999 FEW025 SCT080 19/12 Q1002
RJOK 242110Z 34020KT 9999 FEW025 BKN060 19/12 Q1001 RMK 1CU025 6SC060 A2957
RJOK 241100Z 16014KT 5000 -SHRA BR FEW008 SCT010 BKN020 20/19 Q1005
RJOK 241000Z 16014KT 6000 -SHRA FEW005 BKN010 BKN020 20/18 Q1005
RJOK 240900Z 16013KT 5000 -SHRA BR FEW005 SCT008 BKN015 20/18 Q1005
RJOK 240817Z 17017KT 4000 -SHRA BR FEW005 BKN014 BKN020 20/18 Q1005 RMK 1ST005 5ST014 6CU020 A2970
RJOK 240800Z 17013KT 2500 SHRA BR FEW007 SCT010 BKN015 20/18 Q1006
RJOK 240745Z 16014KT 2000 R32/1100VP1800D SHRA BR FEW005 SCT008 BKN015 20/18 Q1006 RMK 1ST005 3ST008 6CU015 A2971
RJOK 240734Z 16013KT 3000 SHRA BR FEW005 SCT008 BKN014 FEW020CB 20/18 Q1006 RMK 1ST005 3ST008 5ST014 1CB020 A2972 CB 15KM N MOV NE
RJOK 240721Z 16013KT 3500 R32/1300VP1800U SHRA BR FEW010 BKN013 BKN015 FEW020CB 20/18 Q1006 RMK 1ST010 5ST013 6CU015 1CB020 A2972 CB 20KM N MOV NE
RJOK 240716Z 16014KT 2500 R32/1300V1800D SHRA BR FEW005 BKN013 BKN015 FEW020CB 20/18 Q1006 RMK 1ST005 5ST013 6CU015 1CB020 A2972 CB 20KM NE MOV NE
RJOK 240711Z 16015KT 2500 R32/0800V1800U SHRA BR FEW005 BKN013 BKN015 FEW020CB 20/18 Q1006 RMK 1ST005 5ST013 6CU015 1CB020 A2972 CB 15KM N MOV NE
RJOK 240700Z 15013KT 2000 R32/0900VP1800D +SHRA BR FEW005 SCT013 BKN015 20/18 Q1006
RJOK 240605Z 14012KT 4000 SHRA BR FEW005 BKN015 BKN020 20/18 Q1007 RMK 1ST005 5ST015 6CU020 A2974
RJOK 240600Z 14012KT 6000 -SHRA FEW005 BKN015 BKN020 20/18 Q1007
RJOK 240500Z 12011KT 9000 -SHRA FEW008 SCT018 BKN025 20/18 Q1008
RJOK 240400Z 13011KT 9999 -SHRA FEW008 SCT025 BKN040 20/18 Q1009
RJOK 240315Z 13011KT 7000 -SHRA FEW005 SCT020 BKN030 19/18 Q1010 RMK 1ST005 4CU020 6CU030 A2983
RJOK 240300Z 13010KT 4000 SHRA BR FEW005 SCT025 BKN035 19/18 Q1010
RJOK 240217Z 13009KT 3000 R32/1200VP1800D SHRA BR FEW005 SCT020 BKN025 19/17 Q1011 RMK 1ST005 4CU020 7CU025 A2987
RJOK 240200Z 14010KT 4000 SHRA BR FEW005 SCT020 BKN025 19/17 Q1011
RJOK 240125Z 13009KT 3000 R32/1200VP1800D SHRA BR FEW005 SCT020 BKN025 19/17 Q1012 RMK 1ST005 4CU020 7CU025 A2989
RJOK 240100Z 13009KT 4000 SHRA BR FEW005 SCT020 BKN030 19/17 Q1012
RJOK 240040Z 16009KT 120V190 4000 SHRA BR FEW006 SCT020 BKN030 19/17 Q1012 RMK 1ST006 4CU020 6CU030 A2990
RJOK 240032Z 17010KT 3000 -SHRA BR FEW006 SCT020 BKN030 19/17 Q1012 RMK 1ST006 4CU020 6CU030 A2990
RJOK 240000Z 18013KT 7000 -SHRA FEW006 SCT020 BKN030 19/17 Q1012
RJOK 232336Z 14010KT 7000 -SHRA FEW010 SCT015 BKN020 19/17 Q1013 RMK 1ST010 4CU015 6CU020 A2991
RJOK 232300Z 12010KT 4000 SHRA BR FEW008 SCT015 BKN020 19/17 Q1012
RJOK 232224Z 11010KT 4000 -SHRA BR FEW008 SCT020 BKN030 19/16 Q1013 RMK 1ST008 3CU020 6CU030 A2991
RJOK 232200Z 09007KT 9999 -SHRA FEW008 SCT020 BKN030 18/16 Q1013
RJOK 232110Z 08006KT 6000 -SHRA FEW006 SCT015 BKN030 18/16 Q1013 RMK 1ST006 3CU015 6CU030 A2992
RJOK 231100Z 35007KT 9999 FEW015 SCT020 BKN030 20/14 Q1017
RJOK 231000Z VRB02KT 9999 FEW020 SCT030 BKN040 21/13 Q1017
RJOK 230900Z 13005KT 9999 FEW020 SCT025 BKN035 21/13 Q1016
RJOK 230800Z 13004KT 9999 FEW025 SCT035 BKN045 21/13 Q1016
RJOK 230700Z 15005KT 9999 FEW030 BKN045 BKN160 22/13 Q1016
RJOK 230600Z 15005KT 9999 FEW030 BKN045 BKN160 22/12 Q1017
RJOK 230500Z 16007KT 9999 FEW030 SCT050 BKN170 22/12 Q1017
RJOK 230400Z 15006KT 9999 FEW040 SCT170 BKN/// 23/11 Q1018
RJOK 230300Z 15006KT 120V200 9999 FEW030 SCT050 BKN/// 23/11 Q1018
RJOK 230200Z 18005KT 120V210 9999 FEW030 SCT050 BKN/// 22/11 Q1018
RJOK 230100Z 20005KT 9999 FEW030 SCT050 BKN070 21/13 Q1019
RJOK 230000Z 16005KT 9999 FEW030 SCT040 BKN/// 20/12 Q1018
RJOK 222300Z 04004KT 360V070 9999 FEW030 BKN050 19/11 Q1019
RJOK 222200Z 36006KT 9999 FEW025 BKN040 BKN/// 17/12 Q1019
RJOK 222110Z 34006KT 9999 FEW025 BKN045 16/11 Q1019 RMK 1CU025 5SC045 A3009
RJOK 221100Z 05003KT CAVOK 19/13 Q1018